sensor_id;sensor_type;location;lat;lon;timestamp;pressure;altitude;pressure_sealevel;temperature;humidity
58686;BME280;44465;53.206;-6.106;2023-05-25T00:00:11;103019.91;;;22.34;54.84
58686;BME280;44465;53.206;-6.106;2023-05-25T00:02:37;102985.44;;;22.17;54.84
58686;BME280;44465;53.206;-6.106;2023-05-25T00:05:04;102982.84;;;22.14;54.74
58686;BME280;44465;53.206;-6.106;2023-05-25T00:07:30;102917.63;;;21.76;54.83
58686;BME280;44465;53.206;-6.106;2023-05-25T00:09:55;102997.88;;;22.21;54.93
58686;BME280;44465;53.206;-6.106;2023-05-25T00:12:21;102974.09;;;22.06;54.95
58686;BME280;44465;53.206;-6.106;2023-05-25T00:14:46;103001.41;;;22.23;54.84
58686;BME280;44465;53.206;-6.106;2023-05-25T00:17:12;103012.88;;;22.30;55.21
58686;BME280;44465;53.206;-6.106;2023-05-25T00:19:38;102981.16;;;22.10;55.24
58686;BME280;44465;53.206;-6.106;2023-05-25T00:22:07;103012.03;;;22.26;54.98
58686;BME280;44465;53.206;-6.106;2023-05-25T00:24:33;102997.78;;;22.24;55.07
58686;BME280;44465;53.206;-6.106;2023-05-25T00:26:58;102984.59;;;22.15;54.82
58686;BME280;44465;53.206;-6.106;2023-05-25T00:29:25;102952.97;;;21.92;54.72
58686;BME280;44465;53.206;-6.106;2023-05-25T00:31:51;103019.94;;;22.33;54.67
58686;BME280;44465;53.206;-6.106;2023-05-25T00:34:17;102983.78;;;22.13;54.79
58686;BME280;44465;53.206;-6.106;2023-05-25T00:36:42;102982.06;;;22.09;54.86
58686;BME280;44465;53.206;-6.106;2023-05-25T00:39:08;103015.50;;;22.31;54.68
58686;BME280;44465;53.206;-6.106;2023-05-25T00:41:37;102994.34;;;22.19;54.95
58686;BME280;44465;53.206;-6.106;2023-05-25T00:44:06;102982.91;;;22.11;55.04
58686;BME280;44465;53.206;-6.106;2023-05-25T00:46:33;103005.78;;;22.26;55.06
58686;BME280;44465;53.206;-6.106;2023-05-25T00:48:59;103012.03;;;22.26;55.08
58686;BME280;44465;53.206;-6.106;2023-05-25T00:51:26;103010.38;;;22.21;54.86
58686;BME280;44465;53.206;-6.106;2023-05-25T00:53:51;103014.81;;;22.23;55.12
58686;BME280;44465;53.206;-6.106;2023-05-25T00:56:23;102986.66;;;22.05;55.06
58686;BME280;44465;53.206;-6.106;2023-05-25T00:58:53;103015.72;;;22.22;54.72
58686;BME280;44465;53.206;-6.106;2023-05-25T01:01:20;103013.16;;;22.18;54.92
58686;BME280;44465;53.206;-6.106;2023-05-25T01:03:48;102986.69;;;22.04;55.13
58686;BME280;44465;53.206;-6.106;2023-05-25T01:06:19;102993.72;;;22.09;54.90
58686;BME280;44465;53.206;-6.106;2023-05-25T01:08:48;102913.50;;;21.62;54.79
58686;BME280;44465;53.206;-6.106;2023-05-25T01:11:18;102923.09;;;21.71;54.82
58686;BME280;44465;53.206;-6.106;2023-05-25T01:13:48;102928.56;;;21.68;54.90
58686;BME280;44465;53.206;-6.106;2023-05-25T01:16:14;102958.44;;;21.89;54.94
58686;BME280;44465;53.206;-6.106;2023-05-25T01:18:41;103017.50;;;22.23;54.84
58686;BME280;44465;53.206;-6.106;2023-05-25T01:24:21;103016.59;;;22.24;54.83
58686;BME280;44465;53.206;-6.106;2023-05-25T01:26:58;102988.34;;;22.08;54.77
58686;BME280;44465;53.206;-6.106;2023-05-25T01:29:27;103013.91;;;22.24;54.77
58686;BME280;44465;53.206;-6.106;2023-05-25T01:31:54;102989.28;;;22.07;54.76
58686;BME280;44465;53.206;-6.106;2023-05-25T01:34:23;103007.69;;;22.21;54.56
58686;BME280;44465;53.206;-6.106;2023-05-25T01:36:49;103012.28;;;22.17;54.56
58686;BME280;44465;53.206;-6.106;2023-05-25T01:39:15;103017.56;;;22.20;54.85
58686;BME280;44465;53.206;-6.106;2023-05-25T01:41:40;102996.41;;;22.08;54.67
58686;BME280;44465;53.206;-6.106;2023-05-25T01:44:06;103033.69;;;22.20;54.99
58686;BME280;44465;53.206;-6.106;2023-05-25T01:46:37;103040.88;;;22.18;54.88
58686;BME280;44465;53.206;-6.106;2023-05-25T01:52:06;103023.31;;;22.05;54.88
58686;BME280;44465;53.206;-6.106;2023-05-25T01:54:37;103033.84;;;22.14;54.77
58686;BME280;44465;53.206;-6.106;2023-05-25T01:57:07;103037.31;;;22.18;54.64
58686;BME280;44465;53.206;-6.106;2023-05-25T01:59:35;103039.03;;;22.20;54.90
58686;BME280;44465;53.206;-6.106;2023-05-25T02:02:03;102995.66;;;22.03;54.64
58686;BME280;44465;53.206;-6.106;2023-05-25T02:04:29;103035.50;;;22.18;54.74
58686;BME280;44465;53.206;-6.106;2023-05-25T02:06:55;103016.00;;;22.11;54.80
58686;BME280;44465;53.206;-6.106;2023-05-25T02:09:21;102997.41;;;22.04;54.65
58686;BME280;44465;53.206;-6.106;2023-05-25T02:11:47;103037.34;;;22.16;54.48
58686;BME280;44465;53.206;-6.106;2023-05-25T02:14:13;103039.91;;;22.21;54.79
58686;BME280;44465;53.206;-6.106;2023-05-25T02:16:40;103010.84;;;22.04;54.61
58686;BME280;44465;53.206;-6.106;2023-05-25T02:19:05;103041.78;;;22.19;54.93
58686;BME280;44465;53.206;-6.106;2023-05-25T02:21:32;103041.84;;;22.15;54.63
58686;BME280;44465;53.206;-6.106;2023-05-25T02:24:00;103044.53;;;22.15;54.65
58686;BME280;44465;53.206;-6.106;2023-05-25T02:26:26;102994.22;;;21.88;54.67
58686;BME280;44465;53.206;-6.106;2023-05-25T02:28:52;103020.72;;;22.02;54.93
58686;BME280;44465;53.206;-6.106;2023-05-25T02:31:17;103043.72;;;22.12;54.55
58686;BME280;44465;53.206;-6.106;2023-05-25T02:33:44;103022.56;;;21.99;54.93
58686;BME280;44465;53.206;-6.106;2023-05-25T02:36:10;103043.75;;;22.10;54.79
58686;BME280;44465;53.206;-6.106;2023-05-25T02:38:35;103002.28;;;21.88;54.88
58686;BME280;44465;53.206;-6.106;2023-05-25T02:41:01;103024.44;;;21.94;54.80
58686;BME280;44465;53.206;-6.106;2023-05-25T02:43:27;103049.94;;;22.14;54.73
58686;BME280;44465;53.206;-6.106;2023-05-25T02:45:52;103021.75;;;21.94;54.84
58686;BME280;44465;53.206;-6.106;2023-05-25T02:48:18;103013.88;;;21.88;54.61
58686;BME280;44465;53.206;-6.106;2023-05-25T02:50:43;103059.78;;;22.13;54.66
58686;BME280;44465;53.206;-6.106;2023-05-25T02:53:12;103053.53;;;22.13;54.63
58686;BME280;44465;53.206;-6.106;2023-05-25T02:55:38;103058.91;;;22.13;54.65
58686;BME280;44465;53.206;-6.106;2023-05-25T02:58:07;103052.81;;;22.06;54.76
58686;BME280;44465;53.206;-6.106;2023-05-25T03:00:48;102977.84;;;21.62;54.69
58686;BME280;44465;53.206;-6.106;2023-05-25T03:03:15;103065.19;;;22.10;54.56
58686;BME280;44465;53.206;-6.106;2023-05-25T03:05:40;103016.78;;;21.79;54.82
58686;BME280;44465;53.206;-6.106;2023-05-25T03:08:06;103012.34;;;21.78;54.46
58686;BME280;44465;53.206;-6.106;2023-05-25T03:10:32;103022.94;;;21.82;54.72
58686;BME280;44465;53.206;-6.106;2023-05-25T03:12:57;103076.16;;;22.03;54.64
58686;BME280;44465;53.206;-6.106;2023-05-25T03:15:23;103072.56;;;22.04;54.94
58686;BME280;44465;53.206;-6.106;2023-05-25T03:17:49;103077.06;;;22.02;54.65
58686;BME280;44465;53.206;-6.106;2023-05-25T03:20:15;103070.72;;;22.04;54.67
58686;BME280;44465;53.206;-6.106;2023-05-25T03:22:44;103065.31;;;22.06;54.72
58686;BME280;44465;53.206;-6.106;2023-05-25T03:25:10;103017.75;;;21.75;54.64
58686;BME280;44465;53.206;-6.106;2023-05-25T03:27:38;103048.69;;;21.91;54.65
58686;BME280;44465;53.206;-6.106;2023-05-25T03:30:05;103071.53;;;22.08;54.61
58686;BME280;44465;53.206;-6.106;2023-05-25T03:32:31;103048.81;;;21.85;54.54
58686;BME280;44465;53.206;-6.106;2023-05-25T03:34:57;103064.50;;;22.02;54.54
58686;BME280;44465;53.206;-6.106;2023-05-25T03:37:22;103012.41;;;21.75;54.53
58686;BME280;44465;53.206;-6.106;2023-05-25T03:39:48;103076.03;;;22.07;54.55
58686;BME280;44465;53.206;-6.106;2023-05-25T03:42:14;103077.06;;;22.02;54.61
58686;BME280;44465;53.206;-6.106;2023-05-25T03:44:39;103072.69;;;21.97;54.54
58686;BME280;44465;53.206;-6.106;2023-05-25T03:47:06;103036.63;;;21.72;54.63
58686;BME280;44465;53.206;-6.106;2023-05-25T03:49:31;103058.63;;;21.86;54.54
58686;BME280;44465;53.206;-6.106;2023-05-25T03:51:57;103085.16;;;21.98;54.67
58686;BME280;44465;53.206;-6.106;2023-05-25T03:54:26;103086.16;;;21.94;54.88
58686;BME280;44465;53.206;-6.106;2023-05-25T03:56:51;103103.94;;;21.98;54.60
58686;BME280;44465;53.206;-6.106;2023-05-25T03:59:17;103086.94;;;21.99;54.49
58686;BME280;44465;53.206;-6.106;2023-05-25T04:01:43;103092.31;;;21.99;54.50
58686;BME280;44465;53.206;-6.106;2023-05-25T04:04:08;103093.28;;;21.95;54.57
58686;BME280;44465;53.206;-6.106;2023-05-25T04:06:35;103094.06;;;22.00;54.45
58686;BME280;44465;53.206;-6.106;2023-05-25T04:09:05;103069.41;;;21.84;54.56
58686;BME280;44465;53.206;-6.106;2023-05-25T04:11:32;103090.59;;;21.95;54.44
58686;BME280;44465;53.206;-6.106;2023-05-25T04:13:57;103056.31;;;21.71;54.34
58686;BME280;44465;53.206;-6.106;2023-05-25T04:16:27;103084.59;;;21.85;54.38
58686;BME280;44465;53.206;-6.106;2023-05-25T04:18:54;103067.69;;;21.80;54.41
58686;BME280;44465;53.206;-6.106;2023-05-25T04:21:21;103082.06;;;21.78;54.71
58686;BME280;44465;53.206;-6.106;2023-05-25T04:23:46;103092.63;;;21.85;54.39
58686;BME280;44465;53.206;-6.106;2023-05-25T04:26:12;103094.41;;;21.87;54.55
58686;BME280;44465;53.206;-6.106;2023-05-25T04:28:41;103113.91;;;21.93;54.52
58686;BME280;44465;53.206;-6.106;2023-05-25T04:31:42;103103.34;;;21.85;54.51
58686;BME280;44465;53.206;-6.106;2023-05-25T04:34:12;103102.34;;;21.90;54.60
58686;BME280;44465;53.206;-6.106;2023-05-25T04:36:43;103102.47;;;21.85;54.50
58686;BME280;44465;53.206;-6.106;2023-05-25T04:39:12;103120.09;;;21.95;54.66
58686;BME280;44465;53.206;-6.106;2023-05-25T04:41:42;103103.47;;;21.81;54.38
58686;BME280;44465;53.206;-6.106;2023-05-25T04:44:09;103118.53;;;21.87;54.49
58686;BME280;44465;53.206;-6.106;2023-05-25T04:46:36;103090.25;;;21.72;54.61
58686;BME280;44465;53.206;-6.106;2023-05-25T04:49:03;103116.66;;;21.90;54.35
58686;BME280;44465;53.206;-6.106;2023-05-25T04:51:35;103130.84;;;21.95;54.40
58686;BME280;44465;53.206;-6.106;2023-05-25T04:54:01;103127.34;;;21.93;54.32
58686;BME280;44465;53.206;-6.106;2023-05-25T04:56:27;103116.78;;;21.84;54.53
58686;BME280;44465;53.206;-6.106;2023-05-25T04:58:53;103130.03;;;21.92;54.51
58686;BME280;44465;53.206;-6.106;2023-05-25T05:01:19;103110.59;;;21.80;54.74
58686;BME280;44465;53.206;-6.106;2023-05-25T05:03:45;103127.41;;;21.90;54.48
58686;BME280;44465;53.206;-6.106;2023-05-25T05:06:11;103127.44;;;21.87;54.57
58686;BME280;44465;53.206;-6.106;2023-05-25T05:08:37;103115.91;;;21.83;54.70
58686;BME280;44465;53.206;-6.106;2023-05-25T05:11:02;103063.72;;;21.56;54.60
58686;BME280;44465;53.206;-6.106;2023-05-25T05:13:28;103133.63;;;21.91;54.64
58686;BME280;44465;53.206;-6.106;2023-05-25T05:15:55;103137.22;;;21.90;54.44
58686;BME280;44465;53.206;-6.106;2023-05-25T05:18:21;103116.13;;;21.74;54.39
58686;BME280;44465;53.206;-6.106;2023-05-25T05:20:46;103108.03;;;21.76;54.53
58686;BME280;44465;53.206;-6.106;2023-05-25T05:23:12;103138.88;;;21.95;54.12
58686;BME280;44465;53.206;-6.106;2023-05-25T05:25:38;103128.25;;;21.91;54.46
58686;BME280;44465;53.206;-6.106;2023-05-25T05:28:04;103135.38;;;21.93;54.27
58686;BME280;44465;53.206;-6.106;2023-05-25T05:30:35;103137.22;;;21.91;54.19
58686;BME280;44465;53.206;-6.106;2023-05-25T05:33:01;103124.91;;;21.81;54.63
58686;BME280;44465;53.206;-6.106;2023-05-25T05:35:31;103127.50;;;21.84;54.55
58686;BME280;44465;53.206;-6.106;2023-05-25T05:38:06;103131.13;;;21.83;54.50
58686;BME280;44465;53.206;-6.106;2023-05-25T05:40:32;103142.69;;;21.85;54.38
58686;BME280;44465;53.206;-6.106;2023-05-25T05:42:57;103104.69;;;21.64;54.45
58686;BME280;44465;53.206;-6.106;2023-05-25T05:45:23;103131.09;;;21.84;54.63
58686;BME280;44465;53.206;-6.106;2023-05-25T05:47:48;103143.50;;;21.90;54.55
58686;BME280;44465;53.206;-6.106;2023-05-25T05:50:14;103097.69;;;21.57;54.09
58686;BME280;44465;53.206;-6.106;2023-05-25T05:52:40;103141.78;;;21.86;54.16
58686;BME280;44465;53.206;-6.106;2023-05-25T05:55:06;103151.50;;;21.92;54.35
58686;BME280;44465;53.206;-6.106;2023-05-25T05:57:32;103147.09;;;21.89;54.20
58686;BME280;44465;53.206;-6.106;2023-05-25T05:59:58;103134.66;;;21.85;54.51
58686;BME280;44465;53.206;-6.106;2023-05-25T06:02:23;103134.66;;;21.85;54.27
58686;BME280;44465;53.206;-6.106;2023-05-25T06:04:49;103154.28;;;21.87;54.31
58686;BME280;44465;53.206;-6.106;2023-05-25T06:07:16;103134.94;;;21.73;54.24
58686;BME280;44465;53.206;-6.106;2023-05-25T06:09:41;103132.25;;;21.73;54.55
58686;BME280;44465;53.206;-6.106;2023-05-25T06:12:07;103126.09;;;21.67;54.27
58686;BME280;44465;53.206;-6.106;2023-05-25T06:14:33;103140.16;;;21.79;53.86
58686;BME280;44465;53.206;-6.106;2023-05-25T06:17:02;103141.94;;;21.80;54.22
58686;BME280;44465;53.206;-6.106;2023-05-25T06:19:28;103130.38;;;21.76;54.10
58686;BME280;44465;53.206;-6.106;2023-05-25T06:21:53;103116.13;;;21.74;54.08
58686;BME280;44465;53.206;-6.106;2023-05-25T06:24:19;103148.00;;;21.88;54.31
58686;BME280;44465;53.206;-6.106;2023-05-25T06:26:45;103148.00;;;21.88;54.10
58686;BME280;44465;53.206;-6.106;2023-05-25T06:29:10;103130.28;;;21.79;54.07
58686;BME280;44465;53.206;-6.106;2023-05-25T06:31:36;103154.28;;;21.87;54.20
58686;BME280;44465;53.206;-6.106;2023-05-25T06:34:02;103145.56;;;21.77;54.22
58686;BME280;44465;53.206;-6.106;2023-05-25T06:36:27;103179.13;;;21.97;54.32
58686;BME280;44465;53.206;-6.106;2023-05-25T06:38:58;103181.03;;;21.90;54.19
58686;BME280;44465;53.206;-6.106;2023-05-25T06:41:24;103149.16;;;21.75;54.16
58686;BME280;44465;53.206;-6.106;2023-05-25T06:43:50;103145.66;;;21.73;54.42
58686;BME280;44465;53.206;-6.106;2023-05-25T06:46:28;103180.13;;;21.91;54.06
58686;BME280;44465;53.206;-6.106;2023-05-25T06:49:00;103161.63;;;21.79;53.90
58686;BME280;44465;53.206;-6.106;2023-05-25T06:51:26;103165.25;;;21.75;54.27
58686;BME280;44465;53.206;-6.106;2023-05-25T06:53:55;103176.56;;;21.91;54.23
58686;BME280;44465;53.206;-6.106;2023-05-25T06:56:21;103165.91;;;21.88;54.55
58686;BME280;44465;53.206;-6.106;2023-05-25T06:58:48;103137.72;;;21.68;54.24
58686;BME280;44465;53.206;-6.106;2023-05-25T07:01:14;103105.81;;;21.52;54.36
58686;BME280;44465;53.206;-6.106;2023-05-25T07:03:40;103141.13;;;21.75;54.05
58686;BME280;44465;53.206;-6.106;2023-05-25T07:06:06;103105.91;;;21.48;54.18
58686;BME280;44465;53.206;-6.106;2023-05-25T07:08:31;103185.69;;;21.82;54.02
58686;BME280;44465;53.206;-6.106;2023-05-25T07:10:57;103163.63;;;21.67;54.10
58686;BME280;44465;53.206;-6.106;2023-05-25T07:13:22;103128.22;;;21.50;54.11
58686;BME280;44465;53.206;-6.106;2023-05-25T07:15:48;103149.38;;;21.65;54.02
58686;BME280;44465;53.206;-6.106;2023-05-25T07:18:14;103134.31;;;21.58;54.32
58686;BME280;44465;53.206;-6.106;2023-05-25T07:20:40;103196.09;;;21.97;54.18
58686;BME280;44465;53.206;-6.106;2023-05-25T07:23:07;103122.78;;;21.53;54.27
58686;BME280;44465;53.206;-6.106;2023-05-25T07:25:33;103196.38;;;21.83;54.23
58686;BME280;44465;53.206;-6.106;2023-05-25T07:28:01;103149.44;;;21.62;54.59
58686;BME280;44465;53.206;-6.106;2023-05-25T07:30:26;103184.69;;;21.86;54.46
58686;BME280;44465;53.206;-6.106;2023-05-25T07:32:52;103169.75;;;21.74;54.32
58686;BME280;44465;53.206;-6.106;2023-05-25T07:35:17;103189.19;;;21.84;54.53
58686;BME280;44465;53.206;-6.106;2023-05-25T07:37:43;103153.06;;;21.61;54.48
58686;BME280;44465;53.206;-6.106;2023-05-25T07:40:08;103201.59;;;21.90;54.21
58686;BME280;44465;53.206;-6.106;2023-05-25T07:42:34;103170.63;;;21.76;54.09
58686;BME280;44465;53.206;-6.106;2023-05-25T07:45:01;103197.13;;;21.90;54.04
58686;BME280;44465;53.206;-6.106;2023-05-25T07:47:27;103188.28;;;21.85;54.16
58686;BME280;44465;53.206;-6.106;2023-05-25T07:49:52;103161.81;;;21.69;53.92
58686;BME280;44465;53.206;-6.106;2023-05-25T07:52:18;103152.91;;;21.67;53.88
58686;BME280;44465;53.206;-6.106;2023-05-25T07:54:44;103134.28;;;21.61;54.29
58686;BME280;44465;53.206;-6.106;2023-05-25T07:57:10;103188.25;;;21.88;54.20
58686;BME280;44465;53.206;-6.106;2023-05-25T07:59:36;103196.22;;;21.91;54.02
58686;BME280;44465;53.206;-6.106;2023-05-25T08:02:02;103151.09;;;21.69;53.73
58686;BME280;44465;53.206;-6.106;2023-05-25T08:04:29;103190.81;;;21.93;54.12
58686;BME280;44465;53.206;-6.106;2023-05-25T08:06:55;103149.56;;;21.54;54.07
58686;BME280;44465;53.206;-6.106;2023-05-25T08:09:21;103179.59;;;21.74;53.90
58686;BME280;44465;53.206;-6.106;2023-05-25T08:11:47;103165.47;;;21.65;54.20
58686;BME280;44465;53.206;-6.106;2023-05-25T08:14:12;103193.78;;;21.79;54.21
58686;BME280;44465;53.206;-6.106;2023-05-25T08:16:38;103160.22;;;21.59;53.98
58686;BME280;44465;53.206;-6.106;2023-05-25T08:19:03;103147.84;;;21.52;53.92
58686;BME280;44465;53.206;-6.106;2023-05-25T08:21:29;103201.75;;;21.83;53.83
58686;BME280;44465;53.206;-6.106;2023-05-25T08:23:59;103215.00;;;21.90;53.80
58686;BME280;44465;53.206;-6.106;2023-05-25T08:26:28;103199.09;;;21.82;53.58
58686;BME280;44465;53.206;-6.106;2023-05-25T08:28:54;103199.22;;;21.77;53.69
58686;BME280;44465;53.206;-6.106;2023-05-25T08:31:21;103121.34;;;21.36;53.78
58686;BME280;44465;53.206;-6.106;2023-05-25T08:33:46;103186.59;;;21.81;53.69
58686;BME280;44465;53.206;-6.106;2023-05-25T08:36:12;103150.47;;;21.53;53.86
58686;BME280;44465;53.206;-6.106;2023-05-25T08:38:37;103146.84;;;21.56;53.76
58686;BME280;44465;53.206;-6.106;2023-05-25T08:41:04;103209.75;;;21.85;53.44
58686;BME280;44465;53.206;-6.106;2023-05-25T08:43:34;103192.94;;;21.78;53.62
58686;BME280;44465;53.206;-6.106;2023-05-25T08:46:06;103184.06;;;21.73;53.88
58686;BME280;44465;53.206;-6.106;2023-05-25T08:48:33;103199.13;;;21.80;53.65
58686;BME280;44465;53.206;-6.106;2023-05-25T08:51:06;103192.31;;;21.64;53.85
58686;BME280;44465;53.206;-6.106;2023-05-25T08:53:34;103216.03;;;21.84;53.71
58686;BME280;44465;53.206;-6.106;2023-05-25T08:56:12;103218.72;;;21.84;54.14
58686;BME280;44465;53.206;-6.106;2023-05-25T08:58:45;103218.75;;;21.82;53.88
58686;BME280;44465;53.206;-6.106;2023-05-25T09:01:14;103149.72;;;21.47;53.85
58686;BME280;44465;53.206;-6.106;2023-05-25T09:03:42;103190.31;;;21.75;53.73
58686;BME280;44465;53.206;-6.106;2023-05-25T09:06:09;103186.66;;;21.78;53.69
58686;BME280;44465;53.206;-6.106;2023-05-25T09:08:35;103176.00;;;21.75;53.79
58686;BME280;44465;53.206;-6.106;2023-05-25T09:11:01;103190.06;;;21.86;53.58
58686;BME280;44465;53.206;-6.106;2023-05-25T09:13:28;103202.41;;;21.95;53.73
58686;BME280;44465;53.206;-6.106;2023-05-25T09:15:54;103204.31;;;21.88;53.61
58686;BME280;44465;53.206;-6.106;2023-05-25T09:18:19;103205.97;;;21.95;53.57
58686;BME280;44465;53.206;-6.106;2023-05-25T09:20:45;103150.31;;;21.63;53.77
58686;BME280;44465;53.206;-6.106;2023-05-25T09:23:11;103207.00;;;21.88;53.69
58686;BME280;44465;53.206;-6.106;2023-05-25T09:25:37;103194.59;;;21.82;53.61
58686;BME280;44465;53.206;-6.106;2023-05-25T09:28:06;103214.19;;;21.86;54.10
58686;BME280;44465;53.206;-6.106;2023-05-25T09:30:32;103147.91;;;21.49;53.70
58686;BME280;44465;53.206;-6.106;2023-05-25T09:33:12;103213.34;;;21.84;53.79
58686;BME280;44465;53.206;-6.106;2023-05-25T09:35:39;103147.06;;;21.45;53.71
58686;BME280;44465;53.206;-6.106;2023-05-25T09:38:05;103202.56;;;21.87;53.56
58686;BME280;44465;53.206;-6.106;2023-05-25T09:40:37;103200.88;;;21.83;53.48
58686;BME280;44465;53.206;-6.106;2023-05-25T09:43:03;103211.41;;;21.92;53.72
58686;BME280;44465;53.206;-6.106;2023-05-25T09:45:29;103201.59;;;21.91;53.75
58686;BME280;44465;53.206;-6.106;2023-05-25T09:47:56;103211.31;;;21.95;53.80
58686;BME280;44465;53.206;-6.106;2023-05-25T09:50:22;103118.50;;;21.43;53.68
58686;BME280;44465;53.206;-6.106;2023-05-25T09:52:47;103197.09;;;21.93;53.63
58686;BME280;44465;53.206;-6.106;2023-05-25T09:55:14;103222.84;;;22.00;53.79
58686;BME280;44465;53.206;-6.106;2023-05-25T09:57:40;103197.19;;;21.87;53.70
58686;BME280;44465;53.206;-6.106;2023-05-25T10:00:06;103198.00;;;21.92;53.85
58686;BME280;44465;53.206;-6.106;2023-05-25T10:02:37;103175.94;;;21.78;53.63
58686;BME280;44465;53.206;-6.106;2023-05-25T10:05:02;103157.50;;;21.61;53.56
58686;BME280;44465;53.206;-6.106;2023-05-25T10:07:29;103220.16;;;22.00;53.54
58686;BME280;44465;53.206;-6.106;2023-05-25T10:09:58;103214.81;;;22.00;53.58
58686;BME280;44465;53.206;-6.106;2023-05-25T10:12:28;103140.72;;;21.51;53.56
58686;BME280;44465;53.206;-6.106;2023-05-25T10:14:54;103144.16;;;21.59;53.48
58686;BME280;44465;53.206;-6.106;2023-05-25T10:17:22;103195.41;;;21.88;53.23
58686;BME280;44465;53.206;-6.106;2023-05-25T10:19:58;103217.66;;;21.93;53.43
58686;BME280;44465;53.206;-6.106;2023-05-25T10:22:40;103226.41;;;22.01;53.37
58686;BME280;44465;53.206;-6.106;2023-05-25T10:25:25;103189.19;;;21.85;53.14
58686;BME280;44465;53.206;-6.106;2023-05-25T10:28:06;103201.66;;;21.88;53.36
58686;BME280;44465;53.206;-6.106;2023-05-25T10:30:32;103207.88;;;21.90;53.55
58686;BME280;44465;53.206;-6.106;2023-05-25T10:33:02;103221.13;;;21.98;53.54
58686;BME280;44465;53.206;-6.106;2023-05-25T10:35:27;103178.56;;;21.79;53.48
58686;BME280;44465;53.206;-6.106;2023-05-25T10:37:53;103202.50;;;21.90;53.29
58686;BME280;44465;53.206;-6.106;2023-05-25T10:40:22;103213.94;;;21.98;53.12
58686;BME280;44465;53.206;-6.106;2023-05-25T10:42:51;103223.56;;;22.09;53.14
58686;BME280;44465;53.206;-6.106;2023-05-25T10:45:17;103194.41;;;21.93;53.32
58686;BME280;44465;53.206;-6.106;2023-05-25T10:47:44;103202.44;;;21.93;53.20
58686;BME280;44465;53.206;-6.106;2023-05-25T10:50:19;103215.56;;;22.06;53.29
58686;BME280;44465;53.206;-6.106;2023-05-25T10:52:56;103188.38;;;21.82;53.32
58686;BME280;44465;53.206;-6.106;2023-05-25T10:55:23;103214.00;;;21.95;53.44
58686;BME280;44465;53.206;-6.106;2023-05-25T10:58:12;103201.59;;;21.90;53.54
58686;BME280;44465;53.206;-6.106;2023-05-25T11:00:38;103209.59;;;21.93;53.38
58686;BME280;44465;53.206;-6.106;2023-05-25T11:03:05;103238.81;;;22.08;53.36
58686;BME280;44465;53.206;-6.106;2023-05-25T11:05:37;103206.97;;;21.91;53.21
58686;BME280;44465;53.206;-6.106;2023-05-25T11:08:05;103211.41;;;21.92;53.21
58686;BME280;44465;53.206;-6.106;2023-05-25T11:16:11;103214.81;;;22.00;53.56
58686;BME280;44465;53.206;-6.106;2023-05-25T11:18:37;103235.06;;;22.15;53.37
58686;BME280;44465;53.206;-6.106;2023-05-25T11:21:14;103229.75;;;22.12;53.06
58686;BME280;44465;53.206;-6.106;2023-05-25T11:23:59;103212.06;;;22.02;53.28
58686;BME280;44465;53.206;-6.106;2023-05-25T11:26:32;103172.41;;;21.76;53.43
58686;BME280;44465;53.206;-6.106;2023-05-25T11:29:00;103235.94;;;22.16;53.14
58686;BME280;44465;53.206;-6.106;2023-05-25T11:31:30;103194.31;;;21.98;53.29
58686;BME280;44465;53.206;-6.106;2023-05-25T11:34:01;103200.53;;;21.98;53.26
58686;BME280;44465;53.206;-6.106;2023-05-25T11:36:30;103218.19;;;22.09;53.26
58686;BME280;44465;53.206;-6.106;2023-05-25T11:38:59;103151.09;;;21.69;53.25
58686;BME280;44465;53.206;-6.106;2023-05-25T11:41:29;103234.09;;;22.18;53.36
58686;BME280;44465;53.206;-6.106;2023-05-25T11:44:02;103225.19;;;22.16;53.36
58686;BME280;44465;53.206;-6.106;2023-05-25T11:46:28;103200.53;;;21.98;53.30
58686;BME280;44465;53.206;-6.106;2023-05-25T11:48:55;103202.44;;;21.93;53.33
58686;BME280;44465;53.206;-6.106;2023-05-25T11:51:28;103234.09;;;22.18;53.36
58686;BME280;44465;53.206;-6.106;2023-05-25T11:53:54;103212.03;;;22.05;53.38
58686;BME280;44465;53.206;-6.106;2023-05-25T11:56:20;103219.94;;;22.11;53.11
58686;BME280;44465;53.206;-6.106;2023-05-25T11:58:48;103226.16;;;22.13;53.36
58686;BME280;44465;53.206;-6.106;2023-05-25T12:01:18;103233.13;;;22.22;53.63
58686;BME280;44465;53.206;-6.106;2023-05-25T12:03:49;103221.78;;;22.08;53.50
58686;BME280;44465;53.206;-6.106;2023-05-25T12:06:23;103231.25;;;22.26;53.56
58686;BME280;44465;53.206;-6.106;2023-05-25T12:08:51;103179.22;;;21.92;53.29
58686;BME280;44465;53.206;-6.106;2023-05-25T12:11:18;103158.72;;;21.88;53.33
58686;BME280;44465;53.206;-6.106;2023-05-25T12:13:52;103157.91;;;21.84;53.39
58686;BME280;44465;53.206;-6.106;2023-05-25T12:16:17;103237.38;;;22.33;53.23
58686;BME280;44465;53.206;-6.106;2023-05-25T12:18:43;103205.59;;;22.14;53.65
58686;BME280;44465;53.206;-6.106;2023-05-25T12:21:09;103212.56;;;22.21;53.19
58686;BME280;44465;53.206;-6.106;2023-05-25T12:23:35;103242.66;;;22.36;53.15
58686;BME280;44465;53.206;-6.106;2023-05-25T12:26:12;103220.56;;;22.23;53.19
58686;BME280;44465;53.206;-6.106;2023-05-25T12:28:39;103177.19;;;22.04;53.32
58686;BME280;44465;53.206;-6.106;2023-05-25T12:31:25;103238.19;;;22.36;53.11
58686;BME280;44465;53.206;-6.106;2023-05-25T12:34:07;103234.03;;;22.21;51.33
58686;BME280;44465;53.206;-6.106;2023-05-25T12:39:06;103206.09;;;21.89;49.41
58686;BME280;44465;53.206;-6.106;2023-05-25T12:41:49;103240.72;;;22.02;48.34
58686;BME280;44465;53.206;-6.106;2023-05-25T12:46:44;103240.63;;;22.06;48.76
58686;BME280;44465;53.206;-6.106;2023-05-25T12:51:54;103238.59;;;22.18;49.73
58686;BME280;44465;53.206;-6.106;2023-05-25T12:54:46;103244.06;;;22.11;49.85
58686;BME280;44465;53.206;-6.106;2023-05-25T12:57:16;103224.72;;;21.97;50.06
58686;BME280;44465;53.206;-6.106;2023-05-25T12:59:44;103219.31;;;21.98;50.05
58686;BME280;44465;53.206;-6.106;2023-05-25T13:02:11;103229.00;;;22.06;50.41